Latest Weather Observations for Thredbo Top Station

IDN60901

Issued at 11:31 pm EST Saturday 27 August 2016 (issued every 10 minutes, with the page automatically refreshed every 10 minutes)

About weather observations | Map of Canberra area stations | Latest observations for Canberra area | Other Formats
Station Details ID: 071032 Name: THREDBO AWS Lat: -36.49 Lon: 148.29 Height: 1957.0 m
Data from the previous 72 hours. | See also: Recent months at Thredbo Top Station
Date/Time
EST
Temp
°C
App
Temp
°C
Dew
Point
°C
Rel
Hum
%
Delta-T
°C
Wind Press
QNH
hPa
Press
MSL
hPa
Rain since
9am
mm
Dir  Spd
km/h
Gust
km/h
Spd
kts
Gust
kts
27/11:30pm -5.2 -15.3 -5.5 98 -0.1 NW 39 44 21 24 1018.0 1021.3 0.0
27/11:00pm -4.4 -15.2 -4.9 96 0.0 NW 43 48 23 26 1018.3 1021.5 0.0
27/10:30pm -4.5 -15.4 -4.8 98 -0.1 NW 44 54 24 29 1018.0 1021.3 0.0
27/10:00pm -4.7 -15.5 -5.0 98 -0.1 NW 43 52 23 28 1018.5 1021.8 0.0
27/09:30pm -4.5 -15.8 -4.8 98 -0.1 NW 46 57 25 31 1018.0 1021.3 0.0
27/09:00pm -3.9 -15.2 -4.2 98 -0.1 NW 46 56 25 30 1017.7 1020.9 0.0
27/08:30pm -4.0 -17.2 -4.1 99 -0.1 NW 56 69 30 37 1016.8 1020.0 0.0
27/08:00pm -3.8 -14.6 -3.9 99 -0.1 NW 44 54 24 29 1017.2 1020.4 0.0
27/07:30pm -3.4 -14.2 -3.7 98 -0.1 NW 44 54 24 29 1016.6 1019.8 0.0
27/07:00pm -4.1 -14.8 -4.2 99 -0.2 NNW 43 50 23 27 1016.8 1020.0 0.0
27/06:30pm -3.9 -14.8 -4.0 99 -0.1 NW 44 54 24 29 1017.3 1020.5 0.0
27/06:00pm -4.2 -14.9 -4.3 99 -0.2 NW 43 54 23 29 1017.3 1020.5 0.0
27/05:30pm -4.2 -14.5 -4.5 98 -0.1 NW 41 50 22 27 1017.0 1020.1 0.0
27/05:00pm -3.3 -13.9 -3.6 98 0.0 NW 43 48 23 26 1016.7 1019.9 0.0
27/04:30pm -2.8 -13.9 -3.2 97 0.0 NW 46 56 25 30 1016.6 1019.8 0.0
27/04:00pm -2.3 -12.8 -2.8 96 0.1 NW 43 56 23 30 1017.0 1020.1 0.0
27/03:30pm -2.1 -12.6 -2.6 96 0.1 NW 43 54 23 29 1017.1 1020.3 0.0
27/03:00pm -3.2 -13.4 -3.5 98 0.0 NW 41 54 22 29 1017.1 1020.3 0.0
27/02:30pm -2.2 -11.9 -2.6 97 0.0 NNW 39 48 21 26 1017.3 1020.5 0.0
27/02:00pm -2.1 -11.8 -2.4 98 0.0 NW 39 50 21 27 1017.4 1020.6 0.0
27/01:30pm -3.6 -13.1 -3.9 98 -0.1 NW 37 46 20 25 1017.1 1020.3 0.0
27/01:00pm -3.6 -13.5 -3.7 99 -0.1 NNW 39 46 21 25 1017.3 1020.5 0.0
27/12:30pm -3.4 -12.9 -3.7 98 -0.1 NW 37 46 20 25 1017.7 1020.9 0.0
27/12:00pm -3.0 -12.1 -3.3 98 0.0 NW 35 41 19 22 1018.4 1021.7 0.0
27/11:30am -3.4 -12.5 -3.9 96 0.0 NW 35 43 19 23 1018.8 1022.0 0.0
27/11:00am -2.4 -13.0 -3.4 93 0.3 NW 43 50 23 27 1019.0 1022.3 0.0
27/10:30am -2.5 -13.2 -4.1 89 0.5 NW 43 50 23 27 1018.9 1022.2 0.0
27/10:00am -2.7 -12.9 -3.2 96 0.1 NW 41 48 22 26 1018.9 1022.2 0.0
27/09:30am -2.5 -11.9 -2.8 98 0.0 NW 37 44 20 24 1019.3 1022.5 0.0
27/09:00am -2.6 -11.1 -2.9 98 0.0 NW 32 39 17 21 1019.6 1022.9 1.2
27/08:30am -3.0 -10.0 -3.3 98 0.0 WNW 24 32 13 17 1019.6 1022.9 1.2
27/08:00am -3.7 -10.8 -4.0 98 -0.1 WNW 24 30 13 16 1019.4 1022.7 1.2
27/07:30am -4.3 -11.4 -4.7 97 -0.1 NW 24 32 13 17 1019.3 1022.5 1.2
27/07:00am -5.0 -12.2 -5.4 97 -0.1 WNW 24 30 13 16 1019.1 1022.4 1.2
27/06:30am -5.0 -12.2 -5.5 96 0.0 WNW 24 32 13 17 1018.8 1022.0 1.2
27/06:00am -5.6 -12.9 -6.1 96 -0.1 NW 24 28 13 15 1018.8 1022.0 1.2
27/05:30am -5.0 -13.0 -5.4 97 -0.1 NW 28 30 15 16 1018.4 1021.7 1.2
27/05:00am -5.8 -12.7 -6.3 96 -0.1 WNW 22 26 12 14 1018.3 1021.5 1.2
27/04:30am -4.8 -12.0 -5.2 97 -0.1 NW 24 28 13 15 1018.3 1021.5 1.2
27/04:00am -5.8 -13.5 -6.2 97 -0.1 NW 26 28 14 15 1018.3 1021.5 1.2
27/03:30am -5.0 -12.6 -5.4 97 -0.1 NW 26 30 14 16 1018.2 1021.4 1.2
27/03:00am -4.9 -12.5 -5.2 98 -0.1 NW 26 32 14 17 1018.4 1021.7 1.2
27/02:30am -5.0 -12.2 -5.3 98 -0.1 WNW 24 32 13 17 1018.4 1021.7 1.2
27/02:00am -5.2 -12.0 -5.5 98 -0.1 WNW 22 28 12 15 1018.5 1021.8 1.2
27/01:30am -5.1 -11.9 -5.4 98 -0.1 WNW 22 28 12 15 1018.8 1022.0 1.2
27/01:00am -4.8 -11.2 -5.1 98 -0.1 WNW 20 24 11 13 1019.0 1022.3 1.2
27/12:30am -4.7 -11.1 -5.0 98 -0.1 WNW 20 22 11 12 1019.0 1022.3 1.2
27/12:00am -4.4 -10.2 -4.7 98 -0.1 WNW 17 22 9 12 1019.1 1022.4 1.2
 
Date/Time
EST
Temp
°C
App
Temp
°C
Dew
Point
°C
Rel
Hum
%
Delta-T
°C
Wind Press
QNH
hPa
Press
MSL
hPa
Rain since
9am
mm
Dir  Spd
km/h
Gust
km/h
Spd
kts
Gust
kts
26/11:30pm -4.5 -9.2 -4.8 98 -0.1 W 11 15 6 8 1019.1 1022.4 1.2
26/11:00pm -4.7 -9.0 -5.0 98 -0.1 W 9 13 5 7 1019.1 1022.4 1.2
26/10:30pm -4.9 -8.3 -5.2 98 -0.1 WSW 4 9 2 5 1019.3 1022.5 1.2
26/10:00pm -4.9 -8.7 -5.2 98 -0.1 WSW 6 9 3 5 1019.1 1022.4 1.2
26/09:30pm -5.1 -8.5 -5.4 98 -0.1 SW 4 11 2 6 1019.3 1022.5 1.2
26/09:00pm -5.0 -7.6 -5.3 98 -0.1 CALM 0 2 0 1 1019.1 1022.4 1.2
26/08:30pm -4.5 -9.2 -4.8 98 -0.1 W 11 19 6 10 1018.9 1022.2 1.2
26/08:00pm -4.8 -10.3 -5.1 98 -0.1 W 15 19 8 10 1018.8 1022.0 1.2
26/07:30pm -5.6 -11.5 -5.9 98 -0.1 WNW 17 22 9 12 1018.5 1021.8 1.2
26/07:00pm -5.0 -11.2 -5.1 99 -0.2 NW 19 22 10 12 1018.5 1021.8 1.2
26/06:30pm -4.5 -10.7 -4.6 99 -0.2 NNW 19 24 10 13 1018.3 1021.5 1.2
26/06:00pm -4.8 -11.0 -4.9 99 -0.2 NW 19 26 10 14 1018.0 1021.3 1.2
26/05:30pm -4.2 -10.9 -4.3 99 -0.2 NW 22 28 12 15 1017.7 1020.9 1.2
26/05:00pm -3.6 -9.9 -3.7 99 -0.1 NNW 20 30 11 16 1017.3 1020.5 1.2
26/04:30pm -3.4 -9.6 -3.5 99 -0.1 WNW 20 28 11 15 1017.6 1020.8 1.2
26/04:00pm -2.6 -7.8 -2.7 99 -0.1 W 15 20 8 11 1017.4 1020.6 1.2
26/03:30pm -2.4 -8.0 -2.5 99 -0.1 NW 17 26 9 14 1017.2 1020.4 1.2
26/03:00pm -2.6 -8.6 -2.7 99 -0.1 NW 19 20 10 11 1017.0 1020.1 1.2
26/02:30pm -2.7 -7.9 -2.8 99 -0.1 NW 15 19 8 10 1017.0 1020.1 1.2
26/02:00pm -2.9 -9.8 -3.0 99 -0.1 WNW 24 28 13 15 1017.0 1020.1 1.2
26/01:30pm -2.4 -7.6 -2.5 99 -0.1 NW 15 22 8 12 1017.2 1020.4 1.2
26/01:00pm -2.8 -8.8 -2.9 99 -0.1 WNW 19 24 10 13 1017.0 1020.1 1.2
26/12:30pm -2.9 -8.9 -3.0 99 -0.1 WNW 19 24 10 13 1017.2 1020.4 1.2
26/12:00pm -3.9 -9.6 -4.0 99 -0.1 WNW 17 22 9 12 1017.4 1020.6 1.2
26/11:30am -4.2 -9.2 -4.3 99 -0.2 WNW 13 19 7 10 1017.6 1020.8 1.2
26/11:00am -3.4 -7.0 -3.5 99 -0.1 NW 6 15 3 8 1017.6 1020.8 1.2
26/10:30am -3.6 -6.1 -3.7 99 -0.1 CALM 0 2 0 1 1017.6 1020.8 1.2
26/10:00am -3.9 -6.4 -4.0 99 -0.1 CALM 0 4 0 2 1017.3 1020.5 0.4
26/09:30am -4.9 -8.3 -5.0 99 -0.2 WSW 4 7 2 4 1017.4 1020.6 0.2
26/09:00am -5.3 -8.7 -5.6 98 -0.1 WNW 4 7 2 4 1017.3 1020.5 1.4
26/08:30am -4.7 -7.3 -5.0 98 -0.1 CALM 0 2 0 1 1017.1 1020.3 0.6
26/08:00am -5.6 -8.7 -5.9 98 -0.1 SSW 2 6 1 3 1016.7 1019.9 0.6
26/07:30am -5.4 -9.4 -5.7 98 -0.1 SSW 7 9 4 5 1016.2 1019.4 0.6
26/07:00am -6.5 -10.6 -6.8 98 -0.2 SSW 7 11 4 6 1016.0 1019.1 0.6
26/06:30am -6.4 -10.5 -6.7 98 -0.2 SW 7 11 4 6 1015.6 1018.7 0.6
26/06:00am -6.4 -10.9 -6.7 98 -0.2 SSW 9 11 5 6 1015.1 1018.2 0.6
26/05:30am -6.2 -9.7 -6.5 98 -0.2 WSW 4 7 2 4 1015.1 1018.2 0.6
26/05:00am -5.8 -9.3 -6.1 98 -0.1 WSW 4 9 2 5 1014.9 1018.0 0.6
26/04:30am -5.7 -10.1 -6.0 98 -0.1 SW 9 15 5 8 1014.5 1017.6 0.6
26/04:00am -6.0 -10.4 -6.3 98 -0.2 SSW 9 15 5 8 1014.3 1017.3 0.6
26/03:30am -6.2 -11.4 -6.5 98 -0.2 SW 13 17 7 9 - - 0.6
26/03:00am -6.2 -11.8 -6.5 98 -0.2 SSW 15 20 8 11 - - 0.6
26/02:30am -6.2 -11.0 -6.5 98 -0.2 SSW 11 15 6 8 - - 0.6
26/02:00am -5.9 -11.1 -6.2 98 -0.1 SSW 13 19 7 10 - - 0.6
26/01:30am -6.1 -11.7 -6.4 98 -0.2 SSW 15 20 8 11 - - 0.6
26/01:00am -6.2 -11.4 -6.5 98 -0.2 SSW 13 19 7 10 - - 0.6
26/12:30am -6.3 -11.9 -6.6 98 -0.2 SSW 15 24 8 13 - - 0.6
26/12:00am -6.3 -12.3 -6.6 98 -0.2 SSW 17 24 9 13 - - 0.6
 
Date/Time
EST
Temp
°C
App
Temp
°C
Dew
Point
°C
Rel
Hum
%
Delta-T
°C
Wind Press
QNH
hPa
Press
MSL
hPa
Rain since
9am
mm
Dir  Spd
km/h
Gust
km/h
Spd
kts
Gust
kts
25/11:30pm -6.6 -12.6 -6.9 98 -0.2 SSW 17 20 9 11 - - 0.6
25/11:00pm -5.7 -10.9 -6.0 98 -0.1 SSW 13 20 7 11 - - 0.6
25/10:30pm -6.1 -11.7 -6.4 98 -0.2 SSW 15 22 8 12 - - 0.6
25/10:00pm -5.6 -11.2 -5.9 98 -0.1 SSW 15 19 8 10 - - 0.6
25/09:30pm -6.2 -11.8 -6.5 98 -0.2 SSW 15 19 8 10 - - 0.6
25/09:00pm -5.9 -11.5 -6.2 98 -0.1 SSW 15 19 8 10 - - 0.6
25/08:30pm -5.6 -10.4 -5.9 98 -0.1 S 11 17 6 9 - - 0.6
25/08:00pm -5.4 -10.9 -5.7 98 -0.1 SW 15 20 8 11 - - 0.6
25/07:30pm -5.6 -10.4 -5.9 98 -0.1 SSW 11 17 6 9 - - 0.6
25/07:00pm -5.9 -10.0 -6.2 98 -0.1 SSW 7 11 4 6 - - 0.6
25/06:30pm -5.6 -10.0 -5.9 98 -0.1 SSW 9 15 5 8 - - 0.6
25/06:00pm -4.9 -9.2 -5.2 98 -0.1 SSW 9 17 5 9 - - 0.6
25/05:30pm -4.8 -9.9 -5.1 98 -0.1 SW 13 17 7 9 - - 0.6
25/05:00pm -4.6 -8.9 -4.7 99 -0.2 SSW 9 15 5 8 - - 0.6
25/04:30pm -4.4 -9.0 -4.5 99 -0.2 SSW 11 24 6 13 - - 0.6
25/04:00pm -4.4 -10.2 -4.5 99 -0.2 WNW 17 22 9 12 - - 0.6
25/03:30pm -4.6 -8.9 -4.7 99 -0.2 WSW 9 13 5 7 - - 0.6
25/03:00pm -4.0 -8.6 -4.1 99 -0.1 W 11 19 6 10 - - 0.6
25/02:30pm -3.1 -7.2 -3.2 99 -0.1 SW 9 17 5 9 - - 0.6
25/02:00pm -3.2 -7.7 -3.3 99 -0.1 WNW 11 19 6 10 - - 0.6
25/01:30pm -4.0 -10.1 -4.1 99 -0.1 W 19 28 10 15 - - 0.6
25/01:00pm -4.5 -10.7 -4.6 99 -0.2 W 19 28 10 15 - - 0.4
25/12:30pm -4.3 -10.6 -4.4 99 -0.2 W 20 28 11 15 - - 0.4
25/12:00pm -4.3 -10.5 -4.4 99 -0.2 W 19 26 10 14 - - 0.4
25/11:30am -4.6 -11.7 -4.7 99 -0.2 W 24 32 13 17 - - 0.4
25/11:00am -4.5 -13.1 -4.6 99 -0.2 WNW 32 39 17 21 - - 0.4
25/10:30am -4.5 -13.3 -4.6 99 -0.2 WNW 33 43 18 23 - - 0.4
25/10:00am -4.3 -13.5 -4.4 99 -0.2 WNW 35 43 19 23 - - 0.0
25/09:30am -4.4 -13.2 -4.5 99 -0.2 WNW 33 41 18 22 - - 0.0
25/09:00am -4.8 -13.5 -4.9 99 -0.2 WNW 32 43 17 23 - - 1.4
25/08:30am -4.4 -13.0 -4.5 99 -0.2 WNW 32 41 17 22 - - 1.4
25/08:00am -4.4 -12.7 -4.5 99 -0.2 WNW 30 39 16 21 - - 1.4
25/07:30am -4.4 -12.3 -4.5 99 -0.2 WNW 28 37 15 20 - - 1.4
25/07:00am -5.0 -13.0 -5.3 98 -0.1 WNW 28 33 15 18 - - 1.4
25/06:30am -5.6 -13.6 -5.9 98 -0.1 WNW 28 35 15 19 - - 1.4
25/06:00am -5.6 -13.2 -5.9 98 -0.1 WNW 26 33 14 18 - - 1.4
25/05:30am -5.5 -12.8 -5.8 98 -0.1 W 24 33 13 18 - - 1.4
25/05:00am -5.7 -12.2 -6.0 98 -0.1 W 20 30 11 16 - - 1.4
25/04:30am -6.3 -11.5 -6.6 98 -0.2 WSW 13 20 7 11 - - 1.4
25/04:00am -6.3 -11.2 -6.6 98 -0.2 WSW 11 15 6 8 - - 1.4
25/03:30am -6.5 -11.4 -6.8 98 -0.2 WSW 11 11 6 6 - - 1.4
25/03:00am -6.2 -10.7 -6.5 98 -0.2 WSW 9 13 5 7 - - 1.4
25/02:30am -6.3 -10.8 -6.6 98 -0.2 WSW 9 13 5 7 - - 1.4
25/02:00am -6.8 -10.4 -7.1 98 -0.2 WNW 4 11 2 6 - - 1.4
25/01:30am -6.0 -9.9 -6.3 98 -0.2 WSW 6 9 3 5 - - 1.4
25/01:00am -4.9 -8.3 -5.0 99 -0.2 WSW 4 6 2 3 - - 1.4
25/12:30am -4.6 -7.6 -4.7 99 -0.2 SSW 2 6 1 3 - - 1.4
25/12:00am -4.3 -7.2 -4.4 99 -0.2 SSW 2 6 1 3 - - 1.4

Latest Capital City Observations: Canberra | Sydney | Melbourne | Brisbane | Adelaide | Perth | Hobart | Darwin

Other Formats:

Comma delimited format used in spreadsheet applications
http://www.bom.gov.au/fwo/IDN60903/IDN60903.95909.axf

JavaScript Object Notation format (JSON) in row-major order
http://www.bom.gov.au/fwo/IDN60903/IDN60903.95909.json